Iowa Center, Iowa
Current Conditions -  °F | °C
As of 4:55 AM on Friday 31 Oct 2014 (Local Time) from KIKV Reporting Station
Clear Clear  
Wind Chill: 21°   Ceiling: Unl
Heat Index: 32°   Visibility: 10mi
Dew Point: 18°   Wind: 16mph
Humidity: 55%   Direction: 350°N
Pressure: 30.4"   Gusts: 30mph
Location:  41.8542°N, 93.4051°W
Report Text: KIKV 310955Z AUTO 35014G26KT 10SM CLR 00/M08 A3040 RMK AO2
Loading
Personal Weather Stations






























Interactive Weather Map
Tropical Storm Tracking
New forecast layout! Learn more

10-Day Weather Forecast

Advertisements
Track Severe Weather on mobile